sensor_id;sensor_type;location;lat;lon;timestamp;pressure;altitude;pressure_sealevel;temperature;humidity
25080;BME280;13071;48.868;9.996;2023-02-11T00:00:16;98494.16;;;-2.59;79.69
25080;BME280;13071;48.868;9.996;2023-02-11T00:02:43;98489.66;;;-2.66;79.72
25080;BME280;13071;48.868;9.996;2023-02-11T00:05:09;98493.47;;;-3.35;82.63
25080;BME280;13071;48.868;9.996;2023-02-11T00:07:36;98480.84;;;-3.33;83.05
25080;BME280;13071;48.868;9.996;2023-02-11T00:10:05;98491.13;;;-3.17;82.02
25080;BME280;13071;48.868;9.996;2023-02-11T00:12:32;98489.09;;;-3.15;82.05
25080;BME280;13071;48.868;9.996;2023-02-11T00:14:59;98489.72;;;-3.13;81.68
25080;BME280;13071;48.868;9.996;2023-02-11T00:17:26;98499.31;;;-3.12;81.44
25080;BME280;13071;48.868;9.996;2023-02-11T00:19:52;98497.09;;;-3.02;81.79
25080;BME280;13071;48.868;9.996;2023-02-11T00:22:19;98493.22;;;-3.06;81.89
25080;BME280;13071;48.868;9.996;2023-02-11T00:24:46;98488.25;;;-3.16;82.54
25080;BME280;13071;48.868;9.996;2023-02-11T00:27:14;98484.59;;;-3.21;82.51
25080;BME280;13071;48.868;9.996;2023-02-11T00:29:40;98485.41;;;-3.21;81.94
25080;BME280;13071;48.868;9.996;2023-02-11T00:32:07;98486.13;;;-3.40;82.59
25080;BME280;13071;48.868;9.996;2023-02-11T00:34:34;98487.78;;;-3.32;82.63
25080;BME280;13071;48.868;9.996;2023-02-11T00:37:02;98473.69;;;-3.39;82.81
25080;BME280;13071;48.868;9.996;2023-02-11T00:39:29;98474.72;;;-3.40;83.52
25080;BME280;13071;48.868;9.996;2023-02-11T00:41:56;98470.59;;;-3.02;81.93
25080;BME280;13071;48.868;9.996;2023-02-11T00:44:24;98482.38;;;-3.18;81.82
25080;BME280;13071;48.868;9.996;2023-02-11T00:46:51;98476.63;;;-3.28;82.97
25080;BME280;13071;48.868;9.996;2023-02-11T00:49:18;98471.53;;;-3.23;82.97
25080;BME280;13071;48.868;9.996;2023-02-11T00:51:44;98466.25;;;-3.23;83.28
25080;BME280;13071;48.868;9.996;2023-02-11T00:54:11;98458.72;;;-3.19;83.13
25080;BME280;13071;48.868;9.996;2023-02-11T00:56:37;98465.78;;;-3.33;83.97
25080;BME280;13071;48.868;9.996;2023-02-11T00:59:04;98457.00;;;-3.40;84.13
25080;BME280;13071;48.868;9.996;2023-02-11T01:01:32;98467.22;;;-3.30;84.00
25080;BME280;13071;48.868;9.996;2023-02-11T01:03:58;98463.38;;;-3.28;83.62
25080;BME280;13071;48.868;9.996;2023-02-11T01:06:25;98453.22;;;-3.18;83.47
25080;BME280;13071;48.868;9.996;2023-02-11T01:08:51;98450.41;;;-3.16;83.26
25080;BME280;13071;48.868;9.996;2023-02-11T01:11:19;98439.94;;;-3.24;83.24
25080;BME280;13071;48.868;9.996;2023-02-11T01:13:47;98432.38;;;-3.34;83.17
25080;BME280;13071;48.868;9.996;2023-02-11T01:16:14;98425.97;;;-3.05;82.49
25080;BME280;13071;48.868;9.996;2023-02-11T01:18:42;98417.50;;;-3.35;82.57
25080;BME280;13071;48.868;9.996;2023-02-11T01:21:09;98415.66;;;-3.82;84.95
25080;BME280;13071;48.868;9.996;2023-02-11T01:23:36;98415.53;;;-4.02;86.98
25080;BME280;13071;48.868;9.996;2023-02-11T01:26:03;98422.22;;;-4.06;87.07
25080;BME280;13071;48.868;9.996;2023-02-11T01:28:30;98414.53;;;-4.01;87.79
25080;BME280;13071;48.868;9.996;2023-02-11T01:30:56;98409.38;;;-3.81;86.55
25080;BME280;13071;48.868;9.996;2023-02-11T01:33:23;98405.78;;;-3.67;86.30
25080;BME280;13071;48.868;9.996;2023-02-11T01:35:51;98399.47;;;-3.66;85.67
25080;BME280;13071;48.868;9.996;2023-02-11T01:38:20;98406.78;;;-3.68;86.04
25080;BME280;13071;48.868;9.996;2023-02-11T01:40:49;98400.53;;;-3.54;84.88
25080;BME280;13071;48.868;9.996;2023-02-11T01:43:16;98403.63;;;-3.43;84.94
25080;BME280;13071;48.868;9.996;2023-02-11T01:45:56;98414.06;;;-3.29;84.64
25080;BME280;13071;48.868;9.996;2023-02-11T01:48:26;98406.34;;;-3.24;84.30
25080;BME280;13071;48.868;9.996;2023-02-11T01:51:00;98420.22;;;-3.22;84.50
25080;BME280;13071;48.868;9.996;2023-02-11T01:53:28;98415.34;;;-3.18;84.38
25080;BME280;13071;48.868;9.996;2023-02-11T01:56:13;98413.13;;;-3.08;84.10
25080;BME280;13071;48.868;9.996;2023-02-11T01:59:01;98406.44;;;-2.84;83.50
25080;BME280;13071;48.868;9.996;2023-02-11T02:01:31;98411.16;;;-2.60;83.00
25080;BME280;13071;48.868;9.996;2023-02-11T02:04:00;98407.47;;;-2.66;82.45
25080;BME280;13071;48.868;9.996;2023-02-11T02:06:33;98403.81;;;-2.65;82.85
25080;BME280;13071;48.868;9.996;2023-02-11T02:09:03;98405.88;;;-2.60;82.09
25080;BME280;13071;48.868;9.996;2023-02-11T02:11:31;98405.47;;;-2.64;82.31
25080;BME280;13071;48.868;9.996;2023-02-11T02:13:58;98405.47;;;-2.64;82.45
25080;BME280;13071;48.868;9.996;2023-02-11T02:16:29;98409.34;;;-2.59;82.30
25080;BME280;13071;48.868;9.996;2023-02-11T02:19:09;98410.56;;;-2.62;82.15
25080;BME280;13071;48.868;9.996;2023-02-11T02:25:07;98405.28;;;-2.49;81.74
25080;BME280;13071;48.868;9.996;2023-02-11T02:27:49;98404.66;;;-2.38;82.01
25080;BME280;13071;48.868;9.996;2023-02-11T02:33:32;98386.72;;;-2.23;81.89
25080;BME280;13071;48.868;9.996;2023-02-11T02:36:13;98372.63;;;-2.23;81.42
25080;BME280;13071;48.868;9.996;2023-02-11T02:38:44;98375.03;;;-2.22;81.72
25080;BME280;13071;48.868;9.996;2023-02-11T02:41:15;98368.53;;;-2.19;81.51
25080;BME280;13071;48.868;9.996;2023-02-11T02:43:43;98370.19;;;-2.44;82.49
25080;BME280;13071;48.868;9.996;2023-02-11T02:46:12;98360.59;;;-2.45;82.82
25080;BME280;13071;48.868;9.996;2023-02-11T02:48:41;98351.59;;;-2.31;82.97
25080;BME280;13071;48.868;9.996;2023-02-11T02:51:17;98342.56;;;-1.97;81.94
25080;BME280;13071;48.868;9.996;2023-02-11T02:53:54;98343.22;;;-2.08;82.23
25080;BME280;13071;48.868;9.996;2023-02-11T02:56:30;98340.53;;;-1.95;82.48
25080;BME280;13071;48.868;9.996;2023-02-11T02:59:14;98341.53;;;-1.96;82.52
25080;BME280;13071;48.868;9.996;2023-02-11T03:01:52;98344.84;;;-2.07;82.50
25080;BME280;13071;48.868;9.996;2023-02-11T03:04:28;98337.72;;;-2.20;83.08
25080;BME280;13071;48.868;9.996;2023-02-11T03:07:02;98348.75;;;-2.23;83.18
25080;BME280;13071;48.868;9.996;2023-02-11T03:09:33;98332.38;;;-2.00;83.04
25080;BME280;13071;48.868;9.996;2023-02-11T03:12:03;98331.97;;;-2.10;83.72
25080;BME280;13071;48.868;9.996;2023-02-11T03:14:32;98332.78;;;-2.03;83.72
25080;BME280;13071;48.868;9.996;2023-02-11T03:17:01;98336.03;;;-1.95;83.70
25080;BME280;13071;48.868;9.996;2023-02-11T03:19:34;98331.75;;;-1.96;83.83
25080;BME280;13071;48.868;9.996;2023-02-11T03:22:06;98321.75;;;-1.94;84.32
25080;BME280;13071;48.868;9.996;2023-02-11T03:24:35;98330.66;;;-1.75;83.99
25080;BME280;13071;48.868;9.996;2023-02-11T03:27:07;98326.63;;;-1.91;84.34
25080;BME280;13071;48.868;9.996;2023-02-11T03:29:38;98331.13;;;-1.91;84.46
25080;BME280;13071;48.868;9.996;2023-02-11T03:32:11;98341.72;;;-1.91;84.22
25080;BME280;13071;48.868;9.996;2023-02-11T03:34:45;98350.31;;;-1.89;83.98
25080;BME280;13071;48.868;9.996;2023-02-11T03:37:17;98358.91;;;-2.00;84.08
25080;BME280;13071;48.868;9.996;2023-02-11T03:39:49;98360.16;;;-2.09;85.70
25080;BME280;13071;48.868;9.996;2023-02-11T03:42:18;98377.28;;;-2.05;85.91
25080;BME280;13071;48.868;9.996;2023-02-11T03:44:49;98360.31;;;-1.91;85.14
25080;BME280;13071;48.868;9.996;2023-02-11T03:47:20;98365.16;;;-1.75;85.08
25080;BME280;13071;48.868;9.996;2023-02-11T03:49:50;98360.50;;;-1.80;84.54
25080;BME280;13071;48.868;9.996;2023-02-11T03:52:20;98361.69;;;-1.76;85.15
25080;BME280;13071;48.868;9.996;2023-02-11T03:54:50;98369.22;;;-1.73;84.31
25080;BME280;13071;48.868;9.996;2023-02-11T03:57:19;98370.03;;;-1.72;84.20
25080;BME280;13071;48.868;9.996;2023-02-11T03:59:50;98369.03;;;-1.71;84.20
25080;BME280;13071;48.868;9.996;2023-02-11T04:02:17;98368.00;;;-1.70;84.73
25080;BME280;13071;48.868;9.996;2023-02-11T04:04:44;98353.22;;;-1.46;83.03
25080;BME280;13071;48.868;9.996;2023-02-11T04:07:12;98352.03;;;-1.57;83.36
25080;BME280;13071;48.868;9.996;2023-02-11T04:09:39;98353.66;;;-1.56;83.88
25080;BME280;13071;48.868;9.996;2023-02-11T04:12:06;98351.00;;;-1.56;84.10
25080;BME280;13071;48.868;9.996;2023-02-11T04:14:32;98355.03;;;-1.40;83.51
25080;BME280;13071;48.868;9.996;2023-02-11T04:16:59;98352.28;;;-1.27;83.70
25080;BME280;13071;48.868;9.996;2023-02-11T04:19:26;98350.19;;;-1.18;83.41
25080;BME280;13071;48.868;9.996;2023-02-11T04:21:52;98357.28;;;-1.06;83.01
25080;BME280;13071;48.868;9.996;2023-02-11T04:24:20;98351.06;;;-1.24;83.86
25080;BME280;13071;48.868;9.996;2023-02-11T04:26:47;98356.13;;;-1.16;84.27
25080;BME280;13071;48.868;9.996;2023-02-11T04:29:13;98342.31;;;-1.32;85.52
25080;BME280;13071;48.868;9.996;2023-02-11T04:31:40;98351.88;;;-1.24;85.74
25080;BME280;13071;48.868;9.996;2023-02-11T04:34:06;98347.03;;;-1.02;85.28
25080;BME280;13071;48.868;9.996;2023-02-11T04:36:33;98344.47;;;-1.15;85.77
25080;BME280;13071;48.868;9.996;2023-02-11T04:38:59;98344.66;;;-1.10;85.49
25080;BME280;13071;48.868;9.996;2023-02-11T04:41:27;98345.00;;;-1.00;84.93
25080;BME280;13071;48.868;9.996;2023-02-11T04:43:54;98342.28;;;-1.25;85.47
25080;BME280;13071;48.868;9.996;2023-02-11T04:46:21;98335.00;;;-1.05;85.32
25080;BME280;13071;48.868;9.996;2023-02-11T04:48:47;98340.50;;;-1.00;84.98
25080;BME280;13071;48.868;9.996;2023-02-11T04:51:14;98341.03;;;-0.91;84.40
25080;BME280;13071;48.868;9.996;2023-02-11T04:53:41;98341.03;;;-0.91;83.76
25080;BME280;13071;48.868;9.996;2023-02-11T04:56:07;98334.09;;;-0.92;83.74
25080;BME280;13071;48.868;9.996;2023-02-11T04:58:35;98333.03;;;-0.84;83.72
25080;BME280;13071;48.868;9.996;2023-02-11T05:01:05;98336.25;;;-0.76;82.97
25080;BME280;13071;48.868;9.996;2023-02-11T05:03:32;98336.50;;;-0.84;83.34
25080;BME280;13071;48.868;9.996;2023-02-11T05:05:59;98326.25;;;-0.80;83.33
25080;BME280;13071;48.868;9.996;2023-02-11T05:08:26;98338.25;;;-0.71;82.81
25080;BME280;13071;48.868;9.996;2023-02-11T05:10:52;98331.34;;;-0.79;82.38
25080;BME280;13071;48.868;9.996;2023-02-11T05:13:19;98321.00;;;-0.94;83.15
25080;BME280;13071;48.868;9.996;2023-02-11T05:15:47;98320.97;;;-0.87;83.62
25080;BME280;13071;48.868;9.996;2023-02-11T05:18:13;98323.16;;;-0.77;83.16
25080;BME280;13071;48.868;9.996;2023-02-11T05:20:41;98306.44;;;-0.84;84.26
25080;BME280;13071;48.868;9.996;2023-02-11T05:23:07;98304.28;;;-0.94;84.12
25080;BME280;13071;48.868;9.996;2023-02-11T05:25:34;98310.16;;;-0.92;84.21
25080;BME280;13071;48.868;9.996;2023-02-11T05:28:01;98309.00;;;-1.03;84.41
25080;BME280;13071;48.868;9.996;2023-02-11T05:30:28;98309.84;;;-1.02;84.85
25080;BME280;13071;48.868;9.996;2023-02-11T05:32:55;98307.09;;;-0.89;84.12
25080;BME280;13071;48.868;9.996;2023-02-11T05:35:22;98301.06;;;-0.78;82.60
25080;BME280;13071;48.868;9.996;2023-02-11T05:37:49;98304.59;;;-0.84;82.86
25080;BME280;13071;48.868;9.996;2023-02-11T05:40:16;98308.00;;;-0.77;83.34
25080;BME280;13071;48.868;9.996;2023-02-11T05:42:42;98307.50;;;-0.92;84.58
25080;BME280;13071;48.868;9.996;2023-02-11T05:45:09;98314.28;;;-0.96;85.25
25080;BME280;13071;48.868;9.996;2023-02-11T05:47:35;98318.94;;;-0.85;85.39
25080;BME280;13071;48.868;9.996;2023-02-11T05:50:04;98313.59;;;-0.85;85.75
25080;BME280;13071;48.868;9.996;2023-02-11T05:52:30;98308.94;;;-0.90;86.27
25080;BME280;13071;48.868;9.996;2023-02-11T05:54:57;98300.66;;;-1.06;86.94
25080;BME280;13071;48.868;9.996;2023-02-11T05:57:24;98293.06;;;-1.03;87.40
25080;BME280;13071;48.868;9.996;2023-02-11T05:59:50;98289.13;;;-0.94;87.30
25080;BME280;13071;48.868;9.996;2023-02-11T06:02:17;98285.44;;;-0.68;87.17
25080;BME280;13071;48.868;9.996;2023-02-11T06:04:44;98283.81;;;-0.94;87.06
25080;BME280;13071;48.868;9.996;2023-02-11T06:07:12;98289.00;;;-1.05;87.58
25080;BME280;13071;48.868;9.996;2023-02-11T06:09:38;98297.88;;;-0.87;86.76
25080;BME280;13071;48.868;9.996;2023-02-11T06:12:05;98306.63;;;-0.79;86.80
25080;BME280;13071;48.868;9.996;2023-02-11T06:14:32;98313.78;;;-0.80;86.35
25080;BME280;13071;48.868;9.996;2023-02-11T06:16:58;98313.53;;;-0.78;86.00
25080;BME280;13071;48.868;9.996;2023-02-11T06:19:25;98319.44;;;-0.70;84.90
25080;BME280;13071;48.868;9.996;2023-02-11T06:21:51;98316.53;;;-0.68;85.17
25080;BME280;13071;48.868;9.996;2023-02-11T06:24:19;98326.78;;;-0.72;84.35
25080;BME280;13071;48.868;9.996;2023-02-11T06:26:46;98311.38;;;-0.63;83.98
25080;BME280;13071;48.868;9.996;2023-02-11T06:29:12;98308.00;;;-0.52;83.41
25080;BME280;13071;48.868;9.996;2023-02-11T06:31:39;98305.34;;;-0.52;83.76
25080;BME280;13071;48.868;9.996;2023-02-11T06:34:06;98297.53;;;-0.47;83.73
25080;BME280;13071;48.868;9.996;2023-02-11T06:36:34;98302.41;;;-0.44;83.98
25080;BME280;13071;48.868;9.996;2023-02-11T06:39:01;98315.19;;;-0.34;84.41
25080;BME280;13071;48.868;9.996;2023-02-11T06:41:29;98311.19;;;-0.44;84.85
25080;BME280;13071;48.868;9.996;2023-02-11T06:43:55;98325.81;;;-0.53;84.99
25080;BME280;13071;48.868;9.996;2023-02-11T06:46:22;98316.66;;;-0.57;85.85
25080;BME280;13071;48.868;9.996;2023-02-11T06:48:48;98320.28;;;-0.51;85.05
25080;BME280;13071;48.868;9.996;2023-02-11T06:51:15;98303.28;;;-0.25;83.69
25080;BME280;13071;48.868;9.996;2023-02-11T06:53:44;98306.25;;;-0.15;82.41
25080;BME280;13071;48.868;9.996;2023-02-11T06:56:12;98309.94;;;-0.16;82.95
25080;BME280;13071;48.868;9.996;2023-02-11T06:58:40;98307.63;;;-0.13;82.67
25080;BME280;13071;48.868;9.996;2023-02-11T07:01:10;98313.31;;;-0.09;82.99
25080;BME280;13071;48.868;9.996;2023-02-11T07:03:38;98309.25;;;-0.30;83.87
25080;BME280;13071;48.868;9.996;2023-02-11T07:06:06;98297.13;;;-0.08;83.46
25080;BME280;13071;48.868;9.996;2023-02-11T07:08:34;98304.69;;;-0.48;84.61
25080;BME280;13071;48.868;9.996;2023-02-11T07:11:08;98310.31;;;-0.56;85.71
25080;BME280;13071;48.868;9.996;2023-02-11T07:13:34;98317.34;;;-0.43;85.72
25080;BME280;13071;48.868;9.996;2023-02-11T07:16:04;98317.97;;;-0.23;84.79
25080;BME280;13071;48.868;9.996;2023-02-11T07:18:31;98314.22;;;-0.15;84.59
25080;BME280;13071;48.868;9.996;2023-02-11T07:20:58;98316.50;;;-0.19;84.96
25080;BME280;13071;48.868;9.996;2023-02-11T07:23:25;98316.66;;;-0.14;84.50
25080;BME280;13071;48.868;9.996;2023-02-11T07:25:51;98312.94;;;-0.13;84.40
25080;BME280;13071;48.868;9.996;2023-02-11T07:28:18;98312.94;;;-0.13;84.81
25080;BME280;13071;48.868;9.996;2023-02-11T07:30:44;98307.34;;;0.14;83.96
25080;BME280;13071;48.868;9.996;2023-02-11T07:33:12;98314.16;;;0.10;84.35
25080;BME280;13071;48.868;9.996;2023-02-11T07:35:39;98315.41;;;0.07;84.77
25080;BME280;13071;48.868;9.996;2023-02-11T07:38:05;98312.06;;;0.12;84.94
25080;BME280;13071;48.868;9.996;2023-02-11T07:40:32;98311.41;;;0.16;85.00
25080;BME280;13071;48.868;9.996;2023-02-11T07:42:59;98320.22;;;0.17;85.24
25080;BME280;13071;48.868;9.996;2023-02-11T07:45:26;98308.47;;;0.24;84.85
25080;BME280;13071;48.868;9.996;2023-02-11T07:47:52;98311.28;;;0.29;84.98
25080;BME280;13071;48.868;9.996;2023-02-11T07:50:20;98312.44;;;0.15;84.99
25080;BME280;13071;48.868;9.996;2023-02-11T07:52:47;98307.41;;;0.25;84.89
25080;BME280;13071;48.868;9.996;2023-02-11T07:55:14;98299.28;;;0.38;83.95
25080;BME280;13071;48.868;9.996;2023-02-11T07:57:40;98301.47;;;0.41;83.50
25080;BME280;13071;48.868;9.996;2023-02-11T08:00:08;98300.28;;;0.56;82.97
25080;BME280;13071;48.868;9.996;2023-02-11T08:02:34;98305.31;;;0.64;81.23
25080;BME280;13071;48.868;9.996;2023-02-11T08:05:01;98302.03;;;0.62;80.00
25080;BME280;13071;48.868;9.996;2023-02-11T08:07:29;98303.22;;;0.66;79.95
25080;BME280;13071;48.868;9.996;2023-02-11T08:09:55;98314.75;;;0.90;78.91
25080;BME280;13071;48.868;9.996;2023-02-11T08:12:22;98322.31;;;0.93;78.88
25080;BME280;13071;48.868;9.996;2023-02-11T08:14:48;98329.78;;;1.02;78.50
25080;BME280;13071;48.868;9.996;2023-02-11T08:17:15;98327.38;;;1.12;77.76
25080;BME280;13071;48.868;9.996;2023-02-11T08:19:42;98338.72;;;1.19;77.34
25080;BME280;13071;48.868;9.996;2023-02-11T08:22:08;98323.81;;;1.30;77.37
25080;BME280;13071;48.868;9.996;2023-02-11T08:24:36;98314.53;;;1.44;76.99
25080;BME280;13071;48.868;9.996;2023-02-11T08:27:03;98317.56;;;1.59;77.46
25080;BME280;13071;48.868;9.996;2023-02-11T08:29:29;98323.84;;;1.65;77.09
25080;BME280;13071;48.868;9.996;2023-02-11T08:31:56;98323.03;;;1.53;77.32
25080;BME280;13071;48.868;9.996;2023-02-11T08:34:23;98330.47;;;1.62;77.30
25080;BME280;13071;48.868;9.996;2023-02-11T08:36:49;98328.16;;;1.66;76.58
25080;BME280;13071;48.868;9.996;2023-02-11T08:39:18;98334.53;;;1.77;76.15
25080;BME280;13071;48.868;9.996;2023-02-11T08:41:47;98330.47;;;1.74;76.09
25080;BME280;13071;48.868;9.996;2023-02-11T08:44:14;98318.50;;;1.88;75.97
25080;BME280;13071;48.868;9.996;2023-02-11T08:46:40;98325.13;;;1.86;76.76
25080;BME280;13071;48.868;9.996;2023-02-11T08:49:07;98319.78;;;1.97;76.36
25080;BME280;13071;48.868;9.996;2023-02-11T08:51:33;98317.91;;;1.98;76.64
25080;BME280;13071;48.868;9.996;2023-02-11T08:54:00;98315.94;;;2.16;76.25
25080;BME280;13071;48.868;9.996;2023-02-11T08:56:27;98317.09;;;2.21;76.22
25080;BME280;13071;48.868;9.996;2023-02-11T08:58:57;98307.53;;;2.36;76.14
25080;BME280;13071;48.868;9.996;2023-02-11T09:01:25;98308.19;;;2.43;75.24
25080;BME280;13071;48.868;9.996;2023-02-11T09:03:52;98314.94;;;2.46;75.70
25080;BME280;13071;48.868;9.996;2023-02-11T09:06:19;98308.50;;;2.58;74.17
25080;BME280;13071;48.868;9.996;2023-02-11T09:08:49;98307.94;;;2.56;75.10
25080;BME280;13071;48.868;9.996;2023-02-11T09:11:16;98302.16;;;2.76;74.63
25080;BME280;13071;48.868;9.996;2023-02-11T09:13:44;98289.81;;;3.03;74.16
25080;BME280;13071;48.868;9.996;2023-02-11T09:16:18;98288.03;;;3.09;73.82
25080;BME280;13071;48.868;9.996;2023-02-11T09:18:45;98284.78;;;3.07;72.94
25080;BME280;13071;48.868;9.996;2023-02-11T09:21:13;98286.66;;;3.07;72.83
25080;BME280;13071;48.868;9.996;2023-02-11T09:23:41;98293.72;;;2.96;73.17
25080;BME280;13071;48.868;9.996;2023-02-11T09:26:12;98300.34;;;2.93;72.60
25080;BME280;13071;48.868;9.996;2023-02-11T09:28:39;98300.56;;;2.92;72.59
25080;BME280;13071;48.868;9.996;2023-02-11T09:31:06;98293.06;;;2.77;73.09
25080;BME280;13071;48.868;9.996;2023-02-11T09:33:35;98288.50;;;3.06;72.69
25080;BME280;13071;48.868;9.996;2023-02-11T09:36:02;98288.41;;;3.01;73.56
25080;BME280;13071;48.868;9.996;2023-02-11T09:38:30;98295.97;;;3.04;73.45
25080;BME280;13071;48.868;9.996;2023-02-11T09:40:56;98308.72;;;3.14;72.29
25080;BME280;13071;48.868;9.996;2023-02-11T09:43:26;98298.50;;;3.27;71.82
25080;BME280;13071;48.868;9.996;2023-02-11T09:45:56;98294.22;;;3.26;71.75
25080;BME280;13071;48.868;9.996;2023-02-11T09:48:23;98307.66;;;3.15;72.66
25080;BME280;13071;48.868;9.996;2023-02-11T09:50:53;98306.69;;;3.04;72.57
25080;BME280;13071;48.868;9.996;2023-02-11T09:53:23;98308.75;;;3.30;71.49
25080;BME280;13071;48.868;9.996;2023-02-11T09:55:52;98304.44;;;3.29;71.97
25080;BME280;13071;48.868;9.996;2023-02-11T09:58:24;98311.91;;;3.44;71.55
25080;BME280;13071;48.868;9.996;2023-02-11T10:00:59;98310.06;;;3.44;70.88
25080;BME280;13071;48.868;9.996;2023-02-11T10:03:47;98317.09;;;3.51;71.82
25080;BME280;13071;48.868;9.996;2023-02-11T10:06:25;98323.69;;;3.60;70.64
25080;BME280;13071;48.868;9.996;2023-02-11T10:09:06;98317.34;;;3.49;70.34
25080;BME280;13071;48.868;9.996;2023-02-11T10:11:42;98326.56;;;3.41;70.73
25080;BME280;13071;48.868;9.996;2023-02-11T10:14:24;98331.94;;;3.41;72.50
25080;BME280;13071;48.868;9.996;2023-02-11T10:17:03;98327.09;;;3.55;71.36
25080;BME280;13071;48.868;9.996;2023-02-11T10:19:45;98330.56;;;3.56;71.37
25080;BME280;13071;48.868;9.996;2023-02-11T10:22:19;98329.41;;;3.52;72.59
25080;BME280;13071;48.868;9.996;2023-02-11T10:24:51;98339.31;;;3.51;72.86
25080;BME280;13071;48.868;9.996;2023-02-11T10:27:26;98331.88;;;3.53;73.05
25080;BME280;13071;48.868;9.996;2023-02-11T10:29:56;98325.72;;;3.69;73.04
25080;BME280;13071;48.868;9.996;2023-02-11T10:32:34;98324.03;;;3.85;71.57
25080;BME280;13071;48.868;9.996;2023-02-11T10:35:12;98308.97;;;3.79;71.26
25080;BME280;13071;48.868;9.996;2023-02-11T10:37:41;98314.41;;;3.84;71.62
25080;BME280;13071;48.868;9.996;2023-02-11T10:40:12;98311.81;;;3.89;70.82
25080;BME280;13071;48.868;9.996;2023-02-11T10:42:41;98306.34;;;4.01;71.03
25080;BME280;13071;48.868;9.996;2023-02-11T10:45:15;98307.34;;;3.95;70.98
25080;BME280;13071;48.868;9.996;2023-02-11T10:47:43;98300.78;;;4.24;71.42
25080;BME280;13071;48.868;9.996;2023-02-11T10:50:22;98300.09;;;4.33;70.88
25080;BME280;13071;48.868;9.996;2023-02-11T10:52:50;98301.25;;;4.21;71.02
25080;BME280;13071;48.868;9.996;2023-02-11T10:55:18;98299.75;;;4.30;70.66
25080;BME280;13071;48.868;9.996;2023-02-11T10:57:53;98287.91;;;4.26;71.28
25080;BME280;13071;48.868;9.996;2023-02-11T11:00:32;98296.09;;;4.36;71.49
25080;BME280;13071;48.868;9.996;2023-02-11T11:03:04;98294.34;;;4.47;71.57
25080;BME280;13071;48.868;9.996;2023-02-11T11:05:34;98296.16;;;4.41;71.54
25080;BME280;13071;48.868;9.996;2023-02-11T11:08:05;98286.69;;;4.33;71.78
25080;BME280;13071;48.868;9.996;2023-02-11T11:10:37;98289.16;;;4.40;71.61
25080;BME280;13071;48.868;9.996;2023-02-11T11:13:24;98276.19;;;4.32;71.92
25080;BME280;13071;48.868;9.996;2023-02-11T11:16:07;98269.84;;;4.16;71.99
25080;BME280;13071;48.868;9.996;2023-02-11T11:18:34;98278.59;;;4.28;71.83
25080;BME280;13071;48.868;9.996;2023-02-11T11:21:03;98278.94;;;4.37;72.20
25080;BME280;13071;48.868;9.996;2023-02-11T11:23:35;98272.78;;;4.58;72.23
25080;BME280;13071;48.868;9.996;2023-02-11T11:26:04;98277.91;;;4.65;72.24
25080;BME280;13071;48.868;9.996;2023-02-11T11:28:35;98266.09;;;4.88;71.70
25080;BME280;13071;48.868;9.996;2023-02-11T11:31:04;98256.56;;;4.75;71.73
25080;BME280;13071;48.868;9.996;2023-02-11T11:33:40;98254.28;;;4.89;71.90
25080;BME280;13071;48.868;9.996;2023-02-11T11:36:09;98249.69;;;5.11;72.29
25080;BME280;13071;48.868;9.996;2023-02-11T11:38:44;98248.63;;;5.12;71.75
25080;BME280;13071;48.868;9.996;2023-02-11T11:41:17;98253.50;;;5.20;71.93
25080;BME280;13071;48.868;9.996;2023-02-11T11:43:57;98258.91;;;5.25;71.64
25080;BME280;13071;48.868;9.996;2023-02-11T11:46:27;98258.72;;;5.32;71.08
25080;BME280;13071;48.868;9.996;2023-02-11T11:49:12;98255.47;;;5.30;70.89
25080;BME280;13071;48.868;9.996;2023-02-11T11:51:41;98242.34;;;5.33;71.36
25080;BME280;13071;48.868;9.996;2023-02-11T11:54:12;98248.44;;;5.23;71.55
25080;BME280;13071;48.868;9.996;2023-02-11T11:56:49;98262.91;;;5.54;72.38
25080;BME280;13071;48.868;9.996;2023-02-11T11:59:16;98260.75;;;5.51;72.86
25080;BME280;13071;48.868;9.996;2023-02-11T12:01:55;98252.91;;;5.82;71.63
25080;BME280;13071;48.868;9.996;2023-02-11T12:04:45;98252.69;;;5.88;72.54
25080;BME280;13071;48.868;9.996;2023-02-11T12:07:26;98246.84;;;5.96;72.67
25080;BME280;13071;48.868;9.996;2023-02-11T12:10:26;98256.56;;;6.13;71.40
25080;BME280;13071;48.868;9.996;2023-02-11T12:13:06;98260.38;;;6.22;72.40
25080;BME280;13071;48.868;9.996;2023-02-11T12:15:44;98267.72;;;5.47;73.66
25080;BME280;13071;48.868;9.996;2023-02-11T12:18:21;98270.94;;;5.86;73.24
25080;BME280;13071;48.868;9.996;2023-02-11T12:20:57;98264.69;;;6.23;71.95
25080;BME280;13071;48.868;9.996;2023-02-11T12:23:37;98267.91;;;5.78;73.27
25080;BME280;13071;48.868;9.996;2023-02-11T12:26:14;98260.59;;;6.05;73.04
25080;BME280;13071;48.868;9.996;2023-02-11T12:28:52;98252.63;;;6.30;72.98
25080;BME280;13071;48.868;9.996;2023-02-11T12:31:26;98249.47;;;6.48;71.09
25080;BME280;13071;48.868;9.996;2023-02-11T12:37:23;98240.03;;;6.41;71.84
25080;BME280;13071;48.868;9.996;2023-02-11T12:39:58;98242.59;;;6.11;72.57
25080;BME280;13071;48.868;9.996;2023-02-11T12:42:46;98232.22;;;6.34;73.10
25080;BME280;13071;48.868;9.996;2023-02-11T12:45:42;98237.44;;;6.04;74.23
25080;BME280;13071;48.868;9.996;2023-02-11T12:48:20;98236.25;;;6.37;73.24
25080;BME280;13071;48.868;9.996;2023-02-11T12:50:54;98222.63;;;6.69;72.48
25080;BME280;13071;48.868;9.996;2023-02-11T12:53:43;98224.53;;;6.83;71.92
25080;BME280;13071;48.868;9.996;2023-02-11T12:56:16;98226.63;;;6.51;70.76
25080;BME280;13071;48.868;9.996;2023-02-11T12:58:49;98230.97;;;6.72;72.31
25080;BME280;13071;48.868;9.996;2023-02-11T13:01:21;98231.81;;;6.93;72.15
25080;BME280;13071;48.868;9.996;2023-02-11T13:03:53;98230.75;;;6.89;71.71
25080;BME280;13071;48.868;9.996;2023-02-11T13:06:24;98223.19;;;6.96;71.19
25080;BME280;13071;48.868;9.996;2023-02-11T13:08:59;98221.88;;;6.93;70.10
25080;BME280;13071;48.868;9.996;2023-02-11T13:11:28;98212.41;;;6.91;70.88
25080;BME280;13071;48.868;9.996;2023-02-11T13:13:59;98219.97;;;6.89;71.04
25080;BME280;13071;48.868;9.996;2023-02-11T13:16:33;98224.78;;;6.82;70.54
25080;BME280;13071;48.868;9.996;2023-02-11T13:19:06;98215.38;;;6.74;70.61
25080;BME280;13071;48.868;9.996;2023-02-11T13:21:47;98213.75;;;6.78;71.03
25080;BME280;13071;48.868;9.996;2023-02-11T13:24:22;98214.84;;;6.92;70.91
25080;BME280;13071;48.868;9.996;2023-02-11T13:26:57;98203.28;;;7.07;71.30
25080;BME280;13071;48.868;9.996;2023-02-11T13:29:31;98204.66;;;7.15;70.48